createdAt,value
2019-02-07T00:01:49.658Z,70.80
2019-02-07T00:04:54.576Z,71.90
2019-02-07T00:07:59.716Z,71.00
2019-02-07T00:11:04.632Z,70.70
2019-02-07T00:14:09.505Z,70.60
2019-02-07T00:17:14.399Z,70.40
2019-02-07T00:20:19.958Z,70.20
2019-02-07T00:23:24.917Z,70.20
2019-02-07T00:26:30.356Z,70.40
2019-02-07T00:29:35.898Z,70.50
2019-02-07T00:32:43.343Z,70.70
2019-02-07T00:35:48.424Z,71.20
2019-02-07T00:38:53.622Z,71.30
2019-02-07T00:41:58.592Z,71.30
2019-02-07T00:45:03.776Z,71.20
2019-02-07T00:48:08.993Z,71.20
2019-02-07T00:51:13.993Z,71.40
2019-02-07T00:54:18.908Z,71.60
2019-02-07T00:57:26.917Z,71.60
2019-02-07T01:00:33.080Z,71.60
2019-02-07T01:03:38.179Z,71.60
2019-02-07T01:06:43.133Z,71.40
2019-02-07T01:09:48.829Z,71.50
2019-02-07T01:12:53.770Z,71.50
2019-02-07T01:15:58.707Z,71.90
2019-02-07T01:19:03.821Z,71.70
2019-02-07T01:22:08.881Z,71.80
2019-02-07T01:25:16.268Z,71.60
2019-02-07T01:28:21.221Z,71.50
2019-02-07T01:31:26.013Z,71.70
2019-02-07T01:34:31.222Z,71.80
2019-02-07T01:37:36.102Z,71.70
2019-02-07T01:40:41.166Z,71.80
2019-02-07T01:43:46.242Z,71.80
2019-02-07T01:46:51.222Z,71.80
2019-02-07T01:49:56.468Z,71.30
2019-02-07T01:53:01.577Z,72.10
2019-02-07T01:56:06.562Z,72.50
2019-02-07T01:59:11.840Z,72.40
2019-02-07T02:02:16.929Z,72.40
2019-02-07T02:05:21.999Z,72.20
2019-02-07T02:08:27.176Z,72.20
2019-02-07T02:11:32.152Z,72.60
2019-02-07T02:14:37.062Z,72.90
2019-02-07T02:17:41.945Z,72.90
2019-02-07T02:20:46.887Z,73.20
2019-02-07T02:23:51.889Z,73.20
2019-02-07T02:26:56.864Z,73.30
2019-02-07T02:30:01.847Z,73.10
2019-02-07T02:33:07.183Z,73.00
2019-02-07T02:36:12.175Z,73.10
2019-02-07T02:39:16.905Z,73.00
2019-02-07T02:42:21.802Z,73.40
2019-02-07T02:45:37.217Z,73.40
2019-02-07T02:48:34.656Z,72.80
2019-02-07T02:51:39.680Z,72.90
2019-02-07T02:54:48.041Z,73.60
2019-02-07T02:57:52.977Z,74.00
2019-02-07T03:01:22.571Z,73.90
2019-02-07T03:04:42.160Z,73.50
2019-02-07T03:08:18.496Z,73.40
2019-02-07T03:11:57.835Z,73.10
2019-02-07T03:15:20.321Z,73.20
2019-02-07T03:18:44.233Z,73.30
2019-02-07T03:22:02.948Z,73.20
2019-02-07T03:25:38.785Z,72.90
2019-02-07T03:29:01.973Z,72.90
2019-02-07T03:32:25.038Z,73.00
2019-02-07T03:35:44.010Z,73.10
2019-02-07T03:39:17.148Z,72.70
2019-02-07T03:42:59.177Z,73.10
2019-02-07T03:46:12.686Z,72.90
2019-02-07T03:49:31.206Z,73.30
2019-02-07T03:52:55.024Z,73.60
2019-02-07T03:56:34.210Z,73.30
2019-02-07T04:00:04.367Z,73.20
2019-02-07T04:03:16.857Z,73.20
2019-02-07T04:06:39.313Z,73.20
2019-02-07T04:10:03.693Z,73.10
2019-02-07T04:13:45.732Z,72.90
2019-02-07T04:17:21.186Z,73.30
2019-02-07T04:20:45.508Z,73.20
2019-02-07T04:24:18.296Z,73.20
2019-02-07T04:27:40.493Z,73.70
2019-02-07T04:31:08.036Z,74.40
2019-02-07T04:34:30.865Z,74.10
2019-02-07T04:38:04.348Z,74.00
2019-02-07T04:41:31.424Z,74.00
2019-02-07T04:44:54.096Z,73.50
2019-02-07T04:48:15.464Z,73.60
2019-02-07T04:51:39.656Z,73.50
2019-02-07T04:55:09.465Z,73.40
2019-02-07T04:58:31.653Z,73.40
2019-02-07T05:02:10.486Z,73.40
2019-02-07T05:05:31.776Z,73.80
2019-02-07T05:08:54.252Z,73.90
2019-02-07T05:12:27.379Z,73.90
2019-02-07T05:15:58.061Z,73.80
2019-02-07T05:19:20.428Z,73.40
2019-02-07T05:22:51.048Z,73.30
2019-02-07T05:26:13.452Z,73.50
2019-02-07T05:29:44.389Z,73.50
2019-02-07T05:33:05.366Z,73.50
2019-02-07T05:36:28.472Z,73.40
2019-02-07T05:39:51.240Z,73.50
2019-02-07T05:43:23.540Z,73.40
2019-02-07T05:46:51.228Z,73.50
2019-02-07T05:50:14.861Z,73.60
2019-02-07T05:53:47.905Z,73.60
2019-02-07T05:57:02.091Z,73.70
2019-02-07T06:00:28.935Z,73.50
2019-02-07T06:03:57.335Z,73.50
2019-02-07T06:07:20.285Z,73.40
2019-02-07T06:10:47.362Z,73.30
2019-02-07T06:14:09.995Z,73.40
2019-02-07T06:17:33.994Z,73.30
2019-02-07T06:20:50.798Z,73.50
2019-02-07T06:24:20.704Z,73.60
2019-02-07T06:27:43.612Z,73.50
2019-02-07T06:31:13.344Z,73.60
2019-02-07T06:34:40.234Z,74.20
2019-02-07T06:38:19.529Z,74.10
2019-02-07T06:41:42.130Z,74.00
2019-02-07T06:45:06.267Z,73.80
2019-02-07T06:48:28.951Z,74.40
2019-02-07T06:51:55.433Z,74.10
2019-02-07T06:55:17.919Z,73.80
2019-02-07T06:58:45.355Z,73.70
2019-02-07T07:02:18.112Z,73.70
2019-02-07T07:05:46.619Z,73.70
2019-02-07T07:09:18.136Z,73.60
2019-02-07T07:12:42.010Z,73.80
2019-02-07T07:16:08.736Z,74.10
2019-02-07T07:19:41.368Z,74.40
2019-02-07T07:23:17.480Z,74.70
2019-02-07T07:26:45.647Z,75.30
2019-02-07T07:30:08.652Z,75.00
2019-02-07T07:33:45.042Z,75.20
2019-02-07T07:37:11.983Z,74.70
2019-02-07T07:40:34.834Z,74.10
2019-02-07T07:43:50.636Z,73.80
2019-02-07T07:47:07.315Z,73.60
2019-02-07T07:50:35.249Z,73.10
2019-02-07T07:53:59.359Z,73.50
2019-02-07T07:57:35.645Z,73.40
2019-02-07T08:00:59.581Z,73.60
2019-02-07T08:04:23.773Z,74.10
2019-02-07T08:07:48.119Z,74.20
2019-02-07T08:11:12.386Z,74.30
2019-02-07T08:14:30.738Z,74.00
2019-02-07T08:17:56.197Z,74.00
2019-02-07T08:21:19.882Z,74.10
2019-02-07T08:24:43.809Z,74.10
2019-02-07T08:28:09.656Z,73.90
2019-02-07T08:31:49.032Z,73.50
2019-02-07T08:35:11.945Z,73.20
2019-02-07T08:38:31.242Z,72.50
2019-02-07T08:41:54.094Z,72.60
2019-02-07T08:45:16.742Z,72.20
2019-02-07T08:48:46.551Z,71.30
2019-02-07T08:52:10.485Z,70.70
2019-02-07T08:55:37.264Z,70.80
2019-02-07T08:59:01.215Z,70.60
2019-02-07T09:02:31.372Z,71.40
2019-02-07T09:06:02.157Z,71.00
2019-02-07T09:09:24.852Z,69.90
2019-02-07T09:12:42.919Z,69.20
2019-02-07T09:16:02.245Z,69.30
2019-02-07T09:19:29.037Z,68.70
2019-02-07T09:22:59.151Z,67.90
2019-02-07T09:26:23.008Z,67.00
2019-02-07T09:29:50.014Z,66.50
2019-02-07T09:33:16.603Z,66.10
2019-02-07T09:36:45.720Z,65.30
2019-02-07T09:40:00.041Z,63.70
2019-02-07T09:43:18.522Z,62.90
2019-02-07T09:46:51.387Z,62.40
2019-02-07T09:50:23.462Z,62.20
2019-02-07T09:53:47.313Z,59.90
2019-02-07T09:57:13.950Z,45.80
2019-02-07T10:00:36.329Z,34.90
2019-02-07T10:04:12.493Z,28.10
2019-02-07T10:07:27.279Z,24.00
2019-02-07T10:10:51.788Z,22.10
2019-02-07T10:14:14.786Z,20.10
2019-02-07T10:17:41.836Z,18.50
2019-02-07T10:21:12.135Z,17.00
2019-02-07T10:24:30.865Z,16.30
2019-02-07T10:27:52.599Z,15.80
2019-02-07T10:31:31.434Z,15.50
2019-02-07T10:34:54.723Z,15.20
2019-02-07T10:38:09.657Z,14.90
2019-02-07T10:41:32.823Z,14.20
2019-02-07T10:44:56.760Z,14.60
2019-02-07T10:48:20.626Z,13.90
2019-02-07T10:51:43.300Z,14.00
2019-02-07T10:55:13.598Z,13.70
2019-02-07T10:58:37.386Z,13.50
2019-02-07T11:02:01.853Z,13.30
2019-02-07T11:05:29.300Z,13.30
2019-02-07T11:08:59.278Z,13.00
2019-02-07T11:12:39.907Z,12.80
2019-02-07T11:16:03.197Z,12.50
2019-02-07T11:19:26.776Z,12.30
2019-02-07T11:22:53.746Z,12.70
2019-02-07T11:26:16.325Z,12.80
2019-02-07T11:29:40.584Z,12.40
2019-02-07T11:33:13.313Z,12.20
2019-02-07T11:36:39.971Z,11.90
2019-02-07T11:40:09.297Z,11.90
2019-02-07T11:43:35.004Z,12.00
2019-02-07T11:47:17.028Z,12.20
2019-02-07T11:51:16.458Z,11.90
2019-02-07T11:54:40.616Z,11.50
2019-02-07T11:58:03.369Z,11.80
2019-02-07T12:01:42.642Z,12.00
2019-02-07T12:05:14.227Z,12.40
2019-02-07T12:08:39.373Z,12.20
2019-02-07T12:12:08.533Z,12.10
2019-02-07T12:15:31.424Z,12.00
2019-02-07T12:18:55.220Z,12.30
2019-02-07T12:22:12.452Z,12.20
2019-02-07T12:25:54.706Z,12.20
2019-02-07T12:29:30.364Z,12.50
2019-02-07T12:33:04.692Z,12.40
2019-02-07T12:36:27.429Z,12.50
2019-02-07T12:39:57.871Z,13.00
2019-02-07T12:43:27.861Z,14.70
2019-02-07T12:46:51.730Z,15.80
2019-02-07T12:50:27.290Z,16.10
2019-02-07T12:54:00.230Z,15.90
2019-02-07T12:57:27.312Z,15.40
2019-02-07T13:00:50.180Z,15.70
2019-02-07T13:04:14.000Z,16.90
2019-02-07T13:07:36.686Z,16.10
2019-02-07T13:11:12.817Z,15.10
2019-02-07T13:14:46.017Z,15.60
2019-02-07T13:18:10.252Z,16.30
2019-02-07T13:21:29.866Z,15.70
2019-02-07T13:24:56.788Z,16.80
2019-02-07T13:28:20.572Z,17.60
2019-02-07T13:32:02.985Z,18.00
2019-02-07T13:35:26.835Z,17.10
2019-02-07T13:39:05.822Z,18.40
2019-02-07T13:42:39.186Z,17.90
2019-02-07T13:46:02.249Z,18.40
2019-02-07T13:49:32.059Z,19.90
2019-02-07T13:53:10.646Z,20.60
2019-02-07T13:56:35.212Z,21.60
2019-02-07T13:59:57.586Z,22.70
2019-02-07T14:03:24.499Z,24.40
2019-02-07T14:06:50.004Z,25.80
2019-02-07T14:10:20.073Z,25.70
2019-02-07T14:14:04.724Z,26.00
2019-02-07T14:17:34.574Z,26.10
2019-02-07T14:20:58.338Z,27.10
2019-02-07T14:24:43.695Z,28.10
2019-02-07T14:28:10.598Z,29.40
2019-02-07T14:31:32.839Z,30.70
2019-02-07T14:35:02.616Z,31.80
2019-02-07T14:38:21.302Z,33.00
2019-02-07T14:41:42.555Z,34.20
2019-02-07T14:45:21.544Z,35.30
2019-02-07T14:48:27.376Z,36.10
2019-02-07T14:51:32.222Z,38.70
2019-02-07T14:54:37.109Z,39.70
2019-02-07T14:57:42.136Z,40.40
2019-02-07T15:00:47.493Z,41.10
2019-02-07T15:03:52.473Z,41.90
2019-02-07T15:06:57.721Z,42.70
2019-02-07T15:10:02.847Z,43.00
2019-02-07T15:13:07.675Z,43.50
2019-02-07T15:16:12.967Z,44.70
2019-02-07T15:19:17.998Z,46.40
2019-02-07T15:22:23.245Z,47.10
2019-02-07T15:25:28.234Z,47.60
2019-02-07T15:28:33.287Z,48.20
2019-02-07T15:31:38.336Z,48.50
2019-02-07T15:34:43.385Z,48.90
2019-02-07T15:37:48.705Z,49.20
2019-02-07T15:40:54.942Z,49.60
2019-02-07T15:44:00.125Z,49.40
2019-02-07T15:47:08.838Z,50.00
2019-02-07T15:50:19.368Z,50.20
2019-02-07T15:53:25.060Z,50.50
2019-02-07T15:56:30.023Z,50.90
2019-02-07T15:59:57.026Z,51.20
2019-02-07T16:03:05.980Z,51.50
2019-02-07T16:06:11.234Z,51.80
2019-02-07T16:09:16.901Z,52.10
2019-02-07T16:12:22.167Z,52.60
2019-02-07T16:15:27.186Z,52.80
2019-02-07T16:18:32.133Z,52.90
2019-02-07T16:21:38.092Z,52.90
2019-02-07T16:24:43.028Z,53.30
2019-02-07T16:27:47.709Z,53.70
2019-02-07T16:30:52.759Z,54.10
2019-02-07T16:33:57.900Z,54.30
2019-02-07T16:37:03.984Z,54.40
2019-02-07T16:40:09.937Z,54.50
2019-02-07T16:43:14.981Z,54.70
2019-02-07T16:46:20.011Z,54.90
2019-02-07T16:49:25.269Z,55.00
2019-02-07T16:52:30.574Z,55.20
2019-02-07T16:55:35.713Z,55.30
2019-02-07T16:58:40.599Z,55.70
2019-02-07T17:01:45.625Z,55.70
2019-02-07T17:04:50.587Z,56.00
2019-02-07T17:07:55.941Z,56.30
2019-02-07T17:11:01.266Z,56.40
2019-02-07T17:14:06.999Z,56.70
2019-02-07T17:17:11.937Z,56.70
2019-02-07T17:20:22.716Z,57.00
2019-02-07T17:23:27.783Z,57.10
2019-02-07T17:26:33.181Z,57.10
2019-02-07T17:29:38.247Z,57.60
2019-02-07T17:32:43.380Z,57.50
2019-02-07T17:35:50.157Z,57.70
2019-02-07T17:38:55.200Z,57.80
2019-02-07T17:42:00.460Z,58.00
2019-02-07T17:45:06.190Z,58.10
2019-02-07T17:48:11.345Z,58.20
2019-02-07T17:51:22.827Z,58.50
2019-02-07T17:54:23.014Z,59.20
2019-02-07T17:57:30.798Z,59.10
2019-02-07T18:00:43.632Z,59.70
2019-02-07T18:03:48.567Z,59.70
2019-02-07T18:06:53.857Z,59.70
2019-02-07T18:09:59.058Z,61.10
2019-02-07T18:13:04.257Z,61.30
2019-02-07T18:16:09.615Z,61.40
2019-02-07T18:19:14.858Z,61.30
2019-02-07T18:22:20.104Z,61.50
2019-02-07T18:25:25.215Z,61.50
2019-02-07T18:28:30.411Z,61.90
2019-02-07T18:31:35.425Z,62.60
2019-02-07T18:34:40.568Z,62.60
2019-02-07T18:37:46.699Z,62.60
2019-02-07T18:40:51.997Z,62.20
2019-02-07T18:43:56.952Z,62.10
2019-02-07T18:47:02.023Z,62.10
2019-02-07T18:50:09.508Z,62.10
2019-02-07T18:53:14.887Z,62.40
2019-02-07T18:56:20.318Z,62.20
2019-02-07T18:59:25.241Z,62.50
2019-02-07T19:02:30.209Z,62.60
2019-02-07T19:05:35.633Z,62.90
2019-02-07T19:08:40.803Z,62.90
2019-02-07T19:11:46.086Z,63.40
2019-02-07T19:14:51.218Z,63.50
2019-02-07T19:17:56.364Z,63.70
2019-02-07T19:21:05.117Z,64.60
2019-02-07T19:24:13.728Z,65.00
2019-02-07T19:27:19.075Z,65.70
2019-02-07T19:30:29.537Z,66.20
2019-02-07T19:33:34.462Z,66.50
2019-02-07T19:36:39.765Z,67.00
2019-02-07T19:39:44.898Z,67.30
2019-02-07T19:42:50.119Z,67.50
2019-02-07T19:45:55.469Z,67.60
2019-02-07T19:49:00.801Z,67.60
2019-02-07T19:52:08.078Z,67.40
2019-02-07T19:55:15.381Z,67.30
2019-02-07T19:58:20.413Z,67.00
2019-02-07T20:01:25.548Z,66.80
2019-02-07T20:04:31.025Z,66.90
2019-02-07T20:07:36.072Z,66.90
2019-02-07T20:10:41.343Z,67.00
2019-02-07T20:13:46.653Z,67.80
2019-02-07T20:16:51.711Z,68.40
2019-02-07T20:19:57.216Z,68.60
2019-02-07T20:23:02.189Z,68.80
2019-02-07T20:26:07.290Z,69.20
2019-02-07T20:29:12.245Z,68.30
2019-02-07T20:32:17.382Z,68.40
2019-02-07T20:35:22.439Z,68.70
2019-02-07T20:38:27.481Z,68.60
2019-02-07T20:41:32.552Z,68.70
2019-02-07T20:44:37.582Z,68.80
2019-02-07T20:47:43.401Z,68.80
2019-02-07T20:50:51.327Z,68.80
2019-02-07T20:53:56.355Z,68.80
2019-02-07T20:57:01.421Z,68.80
2019-02-07T21:00:11.843Z,68.70
2019-02-07T21:32:14.095Z,71.00
2019-02-07T21:35:19.764Z,69.20
2019-02-07T21:38:24.918Z,68.90
2019-02-07T21:41:30.423Z,68.90
2019-02-07T21:44:35.546Z,68.80
2019-02-07T21:47:41.228Z,68.80
2019-02-07T21:50:46.471Z,68.90
2019-02-07T21:53:51.601Z,68.80
2019-02-07T21:56:56.604Z,69.10
2019-02-07T22:00:01.842Z,69.80
2019-02-07T22:03:08.256Z,70.70
2019-02-07T22:06:13.392Z,71.40
2019-02-07T22:09:18.726Z,71.60
2019-02-07T22:12:23.950Z,71.40
2019-02-07T22:15:29.134Z,72.30
2019-02-07T22:18:34.463Z,71.90
2019-02-07T22:21:39.674Z,72.00
2019-02-07T22:24:45.047Z,72.00
2019-02-07T22:27:49.943Z,71.90
2019-02-07T22:30:58.617Z,71.80
2019-02-07T22:34:03.644Z,71.40
2019-02-07T22:37:08.657Z,71.80
2019-02-07T22:40:16.512Z,71.70
2019-02-07T22:43:21.500Z,71.90
2019-02-07T22:46:26.551Z,72.10
2019-02-07T22:49:31.956Z,72.00
2019-02-07T22:52:36.859Z,72.20
2019-02-07T22:55:42.121Z,72.50
2019-02-07T22:58:47.330Z,73.50
2019-02-07T23:01:56.630Z,74.10
2019-02-07T23:05:01.727Z,74.40
2019-02-07T23:08:06.931Z,74.40
2019-02-07T23:11:12.057Z,74.10
2019-02-07T23:14:17.001Z,73.50
2019-02-07T23:17:21.894Z,73.20
2019-02-07T23:20:26.793Z,72.60
2019-02-07T23:23:31.740Z,72.90
2019-02-07T23:26:36.706Z,72.50
2019-02-07T23:29:41.734Z,72.60
2019-02-07T23:32:47.016Z,72.50
2019-02-07T23:35:51.950Z,72.50
2019-02-07T23:38:57.408Z,72.60
2019-02-07T23:42:02.614Z,72.60
2019-02-07T23:45:08.236Z,72.60
2019-02-07T23:48:13.643Z,72.50
2019-02-07T23:51:18.710Z,72.40
2019-02-07T23:54:23.824Z,72.40
2019-02-07T23:57:29.228Z,72.00
